createdAt,value
2023-01-18T00:01:09.120Z,16.25
2023-01-18T00:03:38.183Z,17.80
2023-01-18T00:06:07.270Z,16.52
2023-01-18T00:08:35.912Z,15.65
2023-01-18T00:11:28.938Z,17.02
2023-01-18T00:13:56.687Z,15.77
2023-01-18T00:16:23.645Z,18.15
2023-01-18T00:18:53.203Z,16.60
2023-01-18T00:21:20.458Z,13.93
2023-01-18T00:23:47.152Z,12.98
2023-01-18T00:26:14.085Z,11.95
2023-01-18T00:28:41.166Z,13.98
2023-01-18T00:31:15.111Z,14.05
2023-01-18T00:33:46.899Z,12.88
2023-01-18T00:36:15.024Z,15.38
2023-01-18T00:38:42.331Z,12.27
2023-01-18T00:41:09.329Z,15.48
2023-01-18T00:43:38.833Z,15.55
2023-01-18T00:46:10.039Z,13.55
2023-01-18T00:48:38.917Z,14.55
2023-01-18T00:51:06.947Z,13.30
2023-01-18T00:53:33.768Z,13.38
2023-01-18T00:56:00.924Z,12.90
2023-01-18T00:58:28.915Z,13.38
2023-01-18T01:00:55.686Z,12.82
2023-01-18T01:03:22.915Z,15.38
2023-01-18T01:06:08.305Z,13.20
2023-01-18T01:08:35.279Z,11.70
2023-01-18T01:11:11.953Z,13.35
2023-01-18T01:13:57.713Z,13.10
2023-01-18T01:16:43.141Z,11.02
2023-01-18T01:19:28.531Z,11.65
2023-01-18T01:22:14.032Z,12.00
2023-01-18T01:24:59.303Z,11.10
2023-01-18T01:27:26.721Z,12.18
2023-01-18T01:29:54.314Z,12.77
2023-01-18T01:32:21.001Z,11.82
2023-01-18T01:34:47.659Z,14.75
2023-01-18T01:37:14.400Z,12.48
2023-01-18T01:39:41.147Z,13.85
2023-01-18T01:42:13.394Z,14.18
2023-01-18T01:44:44.701Z,14.02
2023-01-18T01:47:40.421Z,15.68
2023-01-18T01:50:24.241Z,16.75
2023-01-18T01:52:51.099Z,17.38
2023-01-18T01:55:28.388Z,14.98
2023-01-18T01:58:08.835Z,13.38
2023-01-18T02:00:35.699Z,14.82
2023-01-18T02:03:07.544Z,15.65
2023-01-18T02:05:40.277Z,18.30
2023-01-18T02:08:11.331Z,15.23
2023-01-18T02:10:38.596Z,18.48
2023-01-18T02:13:09.891Z,14.52
2023-01-18T02:15:51.797Z,18.98
2023-01-18T02:18:46.508Z,16.17
2023-01-18T02:21:17.174Z,16.10
2023-01-18T02:24:08.931Z,14.82
2023-01-18T02:26:50.347Z,15.20
2023-01-18T02:29:23.954Z,16.92
2023-01-18T02:31:53.655Z,17.70
2023-01-18T02:34:51.855Z,15.60
2023-01-18T02:37:44.557Z,18.15
2023-01-18T02:40:19.212Z,14.80
2023-01-18T02:43:04.600Z,16.90
2023-01-18T02:46:19.564Z,15.07
2023-01-18T02:48:48.209Z,18.92
2023-01-18T02:51:14.982Z,15.18
2023-01-18T02:53:44.769Z,20.17
2023-01-18T02:56:16.153Z,17.13
2023-01-18T02:58:50.838Z,15.27
2023-01-18T03:01:22.419Z,13.30
2023-01-18T03:03:51.544Z,13.75
2023-01-18T03:06:20.695Z,17.33
2023-01-18T03:08:53.612Z,13.63
2023-01-18T03:11:31.075Z,14.93
2023-01-18T03:14:32.167Z,16.17
2023-01-18T03:17:05.045Z,14.57
2023-01-18T03:20:04.122Z,15.02
2023-01-18T03:23:05.290Z,14.52
2023-01-18T03:25:36.713Z,15.57
2023-01-18T03:28:25.890Z,12.38
2023-01-18T03:31:14.047Z,20.17
2023-01-18T03:33:47.202Z,16.48
2023-01-18T03:36:21.945Z,16.15
2023-01-18T03:39:01.039Z,16.00
2023-01-18T03:41:32.130Z,15.52
2023-01-18T03:44:04.625Z,13.75
2023-01-18T03:46:33.245Z,13.13
2023-01-18T03:49:00.418Z,15.18
2023-01-18T03:52:00.014Z,16.52
2023-01-18T03:54:38.172Z,16.10
2023-01-18T03:57:19.511Z,14.80
2023-01-18T03:59:47.328Z,20.25
2023-01-18T04:02:17.140Z,15.32
2023-01-18T04:04:44.070Z,14.13
2023-01-18T04:07:10.871Z,12.73
2023-01-18T04:09:37.624Z,15.85
2023-01-18T04:12:04.771Z,15.38
2023-01-18T04:14:31.540Z,15.48
2023-01-18T04:16:58.283Z,13.13
2023-01-18T04:19:25.047Z,17.17
2023-01-18T04:21:51.804Z,18.30
2023-01-18T04:24:18.759Z,14.60
2023-01-18T04:26:45.513Z,17.45
2023-01-18T04:29:12.255Z,12.88
2023-01-18T04:31:39.148Z,15.52
2023-01-18T04:34:05.938Z,18.65
2023-01-18T04:36:32.756Z,16.77
2023-01-18T04:38:59.610Z,14.98
2023-01-18T04:41:26.336Z,14.00
2023-01-18T04:43:53.153Z,14.32
2023-01-18T04:46:19.938Z,19.58
2023-01-18T04:48:51.122Z,16.77
2023-01-18T04:51:18.416Z,16.05
2023-01-18T04:53:45.461Z,16.10
2023-01-18T04:56:12.340Z,15.73
2023-01-18T04:58:39.264Z,16.38
2023-01-18T05:01:09.027Z,16.02
2023-01-18T05:03:38.205Z,17.55
2023-01-18T05:06:10.447Z,16.88
2023-01-18T05:08:40.926Z,14.10
2023-01-18T05:11:19.101Z,15.65
2023-01-18T05:13:46.077Z,14.70
2023-01-18T05:16:15.911Z,17.13
2023-01-18T05:18:43.674Z,18.50
2023-01-18T05:21:10.842Z,16.77
2023-01-18T05:23:39.754Z,17.50
2023-01-18T05:26:14.343Z,15.98
2023-01-18T05:28:42.050Z,17.73
2023-01-18T05:31:09.596Z,17.15
2023-01-18T05:33:36.483Z,20.20
2023-01-18T05:36:03.930Z,18.77
2023-01-18T05:38:30.867Z,17.08
2023-01-18T05:40:57.762Z,16.02
2023-01-18T05:43:26.695Z,15.48
2023-01-18T05:45:54.014Z,20.17
2023-01-18T05:48:21.695Z,20.10
2023-01-18T05:50:49.084Z,17.48
2023-01-18T05:53:21.400Z,15.60
2023-01-18T05:55:59.230Z,17.17
2023-01-18T05:58:26.731Z,17.27
2023-01-18T06:00:53.910Z,18.80
2023-01-18T06:03:21.693Z,15.20
2023-01-18T06:05:49.188Z,16.20
2023-01-18T06:08:16.020Z,16.17
2023-01-18T06:10:42.842Z,16.50
2023-01-18T06:13:10.365Z,14.13
2023-01-18T06:15:37.217Z,16.65
2023-01-18T06:18:04.088Z,26.23
2023-01-18T06:20:30.983Z,42.15
2023-01-18T06:22:58.824Z,75.05
2023-01-18T06:25:26.728Z,71.97
2023-01-18T06:27:53.456Z,62.28
2023-01-18T06:30:20.410Z,26.45
2023-01-18T06:32:49.835Z,51.08
2023-01-18T06:35:16.570Z,24.52
2023-01-18T06:37:45.105Z,23.98
2023-01-18T06:40:12.563Z,18.92
2023-01-18T06:42:39.752Z,23.02
2023-01-18T06:45:07.228Z,20.98
2023-01-18T06:47:34.871Z,37.40
2023-01-18T06:50:01.777Z,46.72
2023-01-18T06:52:28.648Z,49.70
2023-01-18T06:54:55.330Z,79.28
2023-01-18T06:57:22.220Z,30.80
2023-01-18T06:59:48.985Z,16.55
2023-01-18T07:02:16.625Z,18.85
2023-01-18T07:04:45.568Z,19.25
2023-01-18T07:07:13.814Z,14.73
2023-01-18T07:09:40.526Z,15.70
2023-01-18T07:12:07.591Z,16.48
2023-01-18T07:14:34.504Z,15.07
2023-01-18T07:17:01.387Z,16.80
2023-01-18T07:19:28.221Z,15.52
2023-01-18T07:21:55.001Z,17.92
2023-01-18T07:24:22.331Z,15.82
2023-01-18T07:26:49.122Z,16.27
2023-01-18T07:29:16.089Z,16.45
2023-01-18T07:31:42.985Z,15.30
2023-01-18T07:34:11.034Z,17.00
2023-01-18T07:36:41.872Z,19.17
2023-01-18T07:39:09.781Z,17.20
2023-01-18T07:41:37.541Z,17.08
2023-01-18T07:44:05.227Z,18.13
2023-01-18T07:46:32.480Z,13.75
2023-01-18T07:49:02.209Z,15.63
2023-01-18T07:51:28.913Z,16.20
2023-01-18T07:53:55.760Z,16.20
2023-01-18T07:56:23.664Z,16.17
2023-01-18T07:58:50.638Z,17.73
2023-01-18T08:01:20.047Z,18.15
2023-01-18T08:03:48.649Z,16.85
2023-01-18T08:06:19.210Z,19.13
2023-01-18T08:08:46.000Z,16.40
2023-01-18T08:11:13.299Z,17.27
2023-01-18T08:13:40.069Z,20.70
2023-01-18T08:16:08.757Z,17.02
2023-01-18T08:18:35.562Z,15.98
2023-01-18T08:21:02.795Z,15.45
2023-01-18T08:23:29.657Z,15.13
2023-01-18T08:26:00.972Z,16.73
2023-01-18T08:28:27.787Z,19.80
2023-01-18T08:31:19.590Z,19.38
2023-01-18T08:33:48.554Z,22.52
2023-01-18T08:36:20.980Z,18.27
2023-01-18T08:38:53.072Z,17.73
2023-01-18T08:41:20.407Z,17.88
2023-01-18T08:43:51.001Z,20.38
2023-01-18T08:46:18.545Z,21.30
2023-01-18T08:48:45.351Z,15.88
2023-01-18T08:51:12.123Z,16.98
2023-01-18T08:53:38.837Z,15.43
2023-01-18T08:56:06.741Z,19.05
2023-01-18T08:58:33.764Z,17.20
2023-01-18T09:01:04.157Z,14.32
2023-01-18T09:03:31.004Z,15.52
2023-01-18T09:06:00.913Z,15.77
2023-01-18T09:08:28.240Z,16.85
2023-01-18T09:10:55.175Z,22.27
2023-01-18T09:13:21.927Z,15.48
2023-01-18T09:15:48.754Z,16.25
2023-01-18T09:18:15.617Z,16.27
2023-01-18T09:20:43.492Z,17.30
2023-01-18T09:23:10.599Z,17.15
2023-01-18T09:25:37.537Z,16.55
2023-01-18T09:28:05.561Z,15.68
2023-01-18T09:30:33.144Z,15.95
2023-01-18T09:33:00.979Z,18.02
2023-01-18T09:35:28.066Z,19.63
2023-01-18T09:37:55.347Z,18.10
2023-01-18T09:40:27.195Z,17.98
2023-01-18T09:42:53.998Z,25.45
2023-01-18T09:45:31.993Z,19.90
2023-01-18T09:48:28.991Z,18.20
2023-01-18T09:51:00.774Z,18.88
2023-01-18T09:53:55.794Z,19.73
2023-01-18T09:56:27.806Z,13.25
2023-01-18T09:59:08.846Z,15.98
2023-01-18T10:01:37.681Z,14.27
2023-01-18T10:04:14.066Z,18.00
2023-01-18T10:06:50.090Z,14.80
2023-01-18T10:09:27.032Z,14.40
2023-01-18T10:12:15.926Z,16.17
2023-01-18T10:14:54.399Z,14.77
2023-01-18T10:17:25.860Z,16.40
2023-01-18T10:19:52.588Z,15.40
2023-01-18T10:22:34.705Z,17.38
2023-01-18T10:25:14.679Z,17.52
2023-01-18T10:28:08.224Z,16.02
2023-01-18T10:30:46.939Z,17.52
2023-01-18T10:33:27.362Z,18.45
2023-01-18T10:35:58.103Z,17.48
2023-01-18T10:38:28.882Z,17.75
2023-01-18T10:41:02.740Z,19.55
2023-01-18T10:43:31.869Z,18.45
2023-01-18T10:45:58.952Z,17.75
2023-01-18T10:48:26.017Z,19.48
2023-01-18T10:50:55.675Z,22.05
2023-01-18T10:53:34.108Z,20.27
2023-01-18T10:56:09.749Z,18.65
2023-01-18T10:58:51.543Z,21.08
2023-01-18T11:01:23.886Z,18.40
2023-01-18T11:04:03.001Z,20.60
2023-01-18T11:06:30.165Z,21.10
2023-01-18T11:08:56.887Z,21.10
2023-01-18T11:11:46.416Z,17.33
2023-01-18T11:14:29.082Z,25.27
2023-01-18T11:17:10.925Z,21.35
2023-01-18T11:19:38.997Z,18.13
2023-01-18T11:22:12.861Z,17.33
2023-01-18T11:24:39.975Z,20.23
2023-01-18T11:27:21.269Z,19.15
2023-01-18T11:29:48.183Z,18.35
2023-01-18T11:32:30.548Z,22.45
2023-01-18T11:34:59.873Z,19.88
2023-01-18T11:37:35.358Z,17.50
2023-01-18T11:40:21.061Z,19.45
2023-01-18T11:42:50.836Z,21.25
2023-01-18T11:45:24.761Z,22.13
2023-01-18T11:48:19.233Z,17.38
2023-01-18T11:50:57.079Z,23.13
2023-01-18T11:53:46.350Z,16.80
2023-01-18T11:56:30.593Z,20.83
2023-01-18T11:58:57.604Z,19.88
2023-01-18T12:01:36.069Z,18.75
2023-01-18T12:04:17.007Z,17.40
2023-01-18T12:07:13.805Z,22.27
2023-01-18T12:09:49.856Z,23.85
2023-01-18T12:12:41.077Z,20.13
2023-01-18T12:15:27.040Z,17.52
2023-01-18T12:18:21.996Z,21.55
2023-01-18T12:20:59.439Z,17.23
2023-01-18T12:23:58.411Z,18.67
2023-01-18T12:26:43.208Z,20.98
2023-01-18T12:29:32.987Z,19.27
2023-01-18T12:32:37.426Z,18.58
2023-01-18T12:35:24.121Z,17.27
2023-01-18T12:38:00.808Z,17.52
2023-01-18T12:40:43.160Z,16.67
2023-01-18T12:43:21.015Z,17.80
2023-01-18T12:46:09.182Z,18.35
2023-01-18T12:48:44.967Z,18.20
2023-01-18T12:51:19.083Z,18.55
2023-01-18T12:53:50.912Z,18.55
2023-01-18T12:56:40.195Z,18.80
2023-01-18T12:59:22.292Z,17.50
2023-01-18T13:01:57.504Z,14.45
2023-01-18T13:04:35.121Z,14.70
2023-01-18T13:07:07.220Z,15.00
2023-01-18T13:09:40.724Z,21.02
2023-01-18T13:12:09.133Z,16.67
2023-01-18T13:14:40.988Z,18.10
2023-01-18T13:17:34.421Z,20.45
2023-01-18T13:20:27.386Z,16.88
2023-01-18T13:23:24.779Z,17.77
2023-01-18T13:26:14.957Z,18.77
2023-01-18T13:28:43.106Z,20.98
2023-01-18T13:31:10.019Z,14.32
2023-01-18T13:33:41.847Z,15.18
2023-01-18T13:36:20.279Z,17.90
2023-01-18T13:38:55.683Z,16.90
2023-01-18T13:41:25.224Z,16.75
2023-01-18T13:43:52.718Z,15.90
2023-01-18T13:46:25.185Z,18.88
2023-01-18T13:48:58.067Z,17.83
2023-01-18T13:51:47.045Z,15.48
2023-01-18T13:54:38.388Z,14.68
2023-01-18T13:57:05.224Z,16.73
2023-01-18T13:59:47.231Z,17.50
2023-01-18T14:02:27.831Z,19.75
2023-01-18T14:05:06.964Z,16.80
2023-01-18T14:07:45.426Z,16.10
2023-01-18T14:10:34.281Z,15.73
2023-01-18T14:13:04.142Z,16.10
2023-01-18T14:15:44.685Z,15.48
2023-01-18T14:18:25.368Z,14.35
2023-01-18T14:21:03.392Z,12.05
2023-01-18T14:23:30.116Z,12.38
2023-01-18T14:26:12.685Z,12.23
2023-01-18T14:28:51.020Z,11.80
2023-01-18T14:31:29.002Z,12.52
2023-01-18T14:33:56.260Z,13.05
2023-01-18T14:36:26.109Z,12.63
2023-01-18T14:39:17.564Z,13.02
2023-01-18T14:41:47.261Z,13.13
2023-01-18T14:44:15.773Z,10.57
2023-01-18T14:46:49.812Z,10.85
2023-01-18T14:49:24.657Z,11.52
2023-01-18T14:51:53.134Z,14.10
2023-01-18T14:54:24.142Z,12.30
2023-01-18T14:56:51.497Z,15.35
2023-01-18T14:59:23.692Z,13.57
2023-01-18T15:01:56.970Z,15.57
2023-01-18T15:04:29.740Z,16.60
2023-01-18T15:06:58.825Z,11.07
2023-01-18T15:09:28.294Z,11.32
2023-01-18T15:11:58.543Z,9.85
2023-01-18T15:14:29.293Z,11.50
2023-01-18T15:16:58.664Z,13.13
2023-01-18T15:19:34.770Z,12.57
2023-01-18T15:22:04.314Z,13.20
2023-01-18T15:24:37.505Z,12.18
2023-01-18T15:27:04.715Z,11.52
2023-01-18T15:29:34.206Z,12.55
2023-01-18T15:32:16.514Z,22.08
2023-01-18T15:34:46.368Z,13.18
2023-01-18T15:37:24.155Z,10.48
2023-01-18T15:40:01.740Z,10.30
2023-01-18T15:42:42.633Z,8.55
2023-01-18T15:45:22.627Z,10.30
2023-01-18T15:47:53.358Z,10.05
2023-01-18T15:50:22.527Z,11.68
2023-01-18T15:52:53.918Z,10.52
2023-01-18T15:55:35.783Z,11.55
2023-01-18T15:58:37.262Z,10.50
2023-01-18T16:01:07.810Z,10.00
2023-01-18T16:03:46.222Z,10.80
2023-01-18T16:06:18.767Z,11.38
2023-01-18T16:09:11.873Z,12.75
2023-01-18T16:11:39.771Z,10.98
2023-01-18T16:14:25.602Z,11.93
2023-01-18T16:16:53.929Z,9.30
2023-01-18T16:19:43.075Z,11.60
2023-01-18T16:22:19.098Z,9.50
2023-01-18T16:25:11.192Z,10.70
2023-01-18T16:27:49.497Z,12.20
2023-01-18T16:30:25.411Z,12.43
2023-01-18T16:32:52.118Z,13.88
2023-01-18T16:35:21.716Z,12.07
2023-01-18T16:37:49.489Z,12.13
2023-01-18T16:40:23.024Z,9.73
2023-01-18T16:43:04.822Z,9.50
2023-01-18T16:45:36.092Z,10.98
2023-01-18T16:48:04.436Z,13.57
2023-01-18T16:50:31.888Z,13.07
2023-01-18T16:52:58.598Z,26.10
2023-01-18T16:55:25.272Z,12.85
2023-01-18T16:57:52.393Z,11.65
2023-01-18T17:00:22.846Z,86.55
2023-01-18T17:02:49.865Z,205.85
2023-01-18T17:05:17.403Z,102.30
2023-01-18T17:07:46.433Z,92.43
2023-01-18T17:10:26.202Z,84.45
2023-01-18T17:12:52.946Z,164.27
2023-01-18T17:15:20.202Z,22.25
2023-01-18T17:17:47.605Z,105.70
2023-01-18T17:20:25.416Z,93.25
2023-01-18T17:22:53.921Z,39.72
2023-01-18T17:25:21.959Z,21.42
2023-01-18T17:27:49.531Z,14.00
2023-01-18T17:30:20.419Z,11.95
2023-01-18T17:32:47.401Z,14.25
2023-01-18T17:35:17.084Z,14.95
2023-01-18T17:37:43.801Z,12.60
2023-01-18T17:40:17.191Z,15.35
2023-01-18T17:42:46.950Z,15.27
2023-01-18T17:45:16.859Z,15.18
2023-01-18T17:47:44.218Z,12.35
2023-01-18T17:50:17.332Z,11.18
2023-01-18T17:52:44.371Z,10.93
2023-01-18T17:55:13.129Z,13.25
2023-01-18T17:57:40.800Z,12.68
2023-01-18T18:00:09.308Z,11.68
2023-01-18T18:02:37.388Z,13.15
2023-01-18T18:05:04.433Z,11.98
2023-01-18T18:07:31.175Z,12.35
2023-01-18T18:10:01.017Z,14.93
2023-01-18T18:12:29.338Z,12.63
2023-01-18T18:14:56.094Z,16.38
2023-01-18T18:17:24.720Z,13.60
2023-01-18T18:19:51.619Z,13.40
2023-01-18T18:22:19.730Z,14.45
2023-01-18T18:24:48.019Z,16.63
2023-01-18T18:27:15.410Z,13.43
2023-01-18T18:29:42.368Z,16.58
2023-01-18T18:32:09.474Z,13.88
2023-01-18T18:34:36.710Z,15.68
2023-01-18T18:37:05.547Z,20.08
2023-01-18T18:39:33.360Z,20.13
2023-01-18T18:42:00.355Z,16.70
2023-01-18T18:44:27.310Z,14.88
2023-01-18T18:46:54.156Z,32.03
2023-01-18T18:49:20.877Z,20.85
2023-01-18T18:51:47.593Z,141.95
2023-01-18T18:54:14.366Z,52.05
2023-01-18T18:56:41.566Z,30.05
2023-01-18T18:59:08.709Z,17.35
2023-01-18T19:01:35.815Z,14.32
2023-01-18T19:04:03.053Z,15.50
2023-01-18T19:06:29.854Z,15.57
2023-01-18T19:08:57.242Z,15.35
2023-01-18T19:11:24.021Z,13.77
2023-01-18T19:13:50.981Z,13.50
2023-01-18T19:16:18.080Z,57.10
2023-01-18T19:18:44.853Z,20.40
2023-01-18T19:21:11.549Z,29.90
2023-01-18T19:23:38.254Z,13.48
2023-01-18T19:26:05.090Z,13.50
2023-01-18T19:28:31.794Z,15.07
2023-01-18T19:31:06.773Z,14.48
2023-01-18T19:33:33.716Z,13.13
2023-01-18T19:36:11.089Z,13.27
2023-01-18T19:38:48.031Z,15.13
2023-01-18T19:41:18.057Z,13.18
2023-01-18T19:43:47.920Z,12.18
2023-01-18T19:46:15.190Z,13.90
2023-01-18T19:48:42.801Z,15.32
2023-01-18T19:51:22.664Z,14.45
2023-01-18T19:53:54.352Z,14.57
2023-01-18T19:56:22.079Z,16.83
2023-01-18T19:58:49.941Z,16.00
2023-01-18T20:01:34.668Z,13.02
2023-01-18T20:04:02.396Z,13.15
2023-01-18T20:06:29.114Z,16.00
2023-01-18T20:08:55.911Z,14.27
2023-01-18T20:11:22.647Z,16.63
2023-01-18T20:13:50.184Z,17.83
2023-01-18T20:16:20.185Z,18.80
2023-01-18T20:18:48.653Z,25.40
2023-01-18T20:21:17.316Z,23.88
2023-01-18T20:23:45.544Z,20.83
2023-01-18T20:26:14.454Z,17.80
2023-01-18T20:28:41.326Z,13.88
2023-01-18T20:31:10.126Z,14.80
2023-01-18T20:33:38.213Z,15.95
2023-01-18T20:36:06.662Z,15.20
2023-01-18T20:38:33.923Z,14.65
2023-01-18T20:41:01.264Z,13.80
2023-01-18T20:43:28.191Z,13.57
2023-01-18T20:46:04.704Z,12.35
2023-01-18T20:48:32.734Z,11.63
2023-01-18T20:51:01.177Z,12.48
2023-01-18T20:53:29.500Z,10.93
2023-01-18T20:56:23.473Z,11.43
2023-01-18T20:58:54.695Z,12.32
2023-01-18T21:01:21.563Z,12.15
2023-01-18T21:03:58.099Z,10.35
2023-01-18T21:06:25.577Z,12.18
2023-01-18T21:08:53.649Z,10.85
2023-01-18T21:11:25.291Z,9.35
2023-01-18T21:13:53.188Z,12.00
2023-01-18T21:16:21.852Z,11.80
2023-01-18T21:18:48.790Z,8.18
2023-01-18T21:21:15.473Z,8.73
2023-01-18T21:23:42.192Z,9.77
2023-01-18T21:26:11.538Z,11.18
2023-01-18T21:28:39.193Z,9.85
2023-01-18T21:31:06.974Z,9.00
2023-01-18T21:33:34.633Z,10.40
2023-01-18T21:36:06.552Z,11.18
2023-01-18T21:38:33.539Z,11.68
2023-01-18T21:41:20.548Z,8.85
2023-01-18T21:44:05.871Z,8.77
2023-01-18T21:46:32.739Z,7.78
2023-01-18T21:49:04.385Z,31.65
2023-01-18T21:51:49.728Z,73.13
2023-01-18T21:54:16.737Z,78.60
2023-01-18T21:56:44.945Z,46.97
2023-01-18T21:59:12.773Z,21.42
2023-01-18T22:01:45.435Z,12.10
2023-01-18T22:04:32.769Z,11.73
2023-01-18T22:07:00.272Z,9.82
2023-01-18T22:09:28.680Z,10.45
2023-01-18T22:11:57.131Z,11.38
2023-01-18T22:14:24.549Z,9.93
2023-01-18T22:16:51.600Z,11.55
2023-01-18T22:19:21.636Z,9.52
2023-01-18T22:21:49.191Z,9.43
2023-01-18T22:24:17.319Z,10.20
2023-01-18T22:26:45.301Z,9.88
2023-01-18T22:29:13.061Z,8.57
2023-01-18T22:31:40.624Z,9.00
2023-01-18T22:34:07.998Z,10.48
2023-01-18T22:36:34.814Z,8.48
2023-01-18T22:39:01.475Z,10.50
2023-01-18T22:41:29.693Z,12.88
2023-01-18T22:43:56.934Z,10.93
2023-01-18T22:46:24.574Z,10.10
2023-01-18T22:48:51.727Z,12.27
2023-01-18T22:51:20.807Z,10.70
2023-01-18T22:53:48.226Z,10.55
2023-01-18T22:56:17.563Z,9.52
2023-01-18T22:58:44.664Z,13.40
2023-01-18T23:01:18.230Z,10.88
2023-01-18T23:03:45.378Z,10.45
2023-01-18T23:06:12.576Z,10.25
2023-01-18T23:08:42.968Z,9.07
2023-01-18T23:11:10.070Z,9.85
2023-01-18T23:13:39.000Z,12.35
2023-01-18T23:16:41.012Z,10.20
2023-01-18T23:19:07.741Z,10.95
2023-01-18T23:21:34.455Z,9.02
2023-01-18T23:24:01.149Z,10.10
2023-01-18T23:26:28.106Z,11.32
2023-01-18T23:28:54.798Z,10.35
2023-01-18T23:31:21.621Z,12.05
2023-01-18T23:33:48.611Z,11.60
2023-01-18T23:36:15.481Z,9.85
2023-01-18T23:39:00.780Z,11.65
2023-01-18T23:41:46.382Z,9.18
2023-01-18T23:44:31.834Z,8.75
2023-01-18T23:47:17.251Z,9.93
2023-01-18T23:50:02.590Z,9.45
2023-01-18T23:52:48.392Z,10.13
2023-01-18T23:55:15.101Z,10.43
2023-01-18T23:57:41.887Z,9.35
